createdAt,value
2022-08-14T00:02:45.266Z,2.70
2022-08-14T00:07:44.135Z,2.40
2022-08-14T00:12:53.322Z,2.80
2022-08-14T00:17:48.097Z,2.90
2022-08-14T00:22:57.478Z,2.60
2022-08-14T00:27:44.862Z,2.80
2022-08-14T00:32:52.399Z,2.10
2022-08-14T00:37:44.740Z,2.50
2022-08-14T00:42:54.920Z,2.70
2022-08-14T00:47:44.861Z,2.90
2022-08-14T00:52:43.671Z,2.80
2022-08-14T00:57:43.507Z,3.00
2022-08-14T01:02:43.563Z,2.70
2022-08-14T01:07:50.364Z,3.00
2022-08-14T01:12:44.652Z,2.80
2022-08-14T01:17:45.843Z,2.60
2022-08-14T01:22:44.417Z,2.70
2022-08-14T01:27:53.788Z,2.80
2022-08-14T01:32:44.102Z,2.40
2022-08-14T01:37:44.113Z,2.60
2022-08-14T01:42:43.073Z,2.40
2022-08-14T01:47:42.833Z,2.50
2022-08-14T01:52:59.686Z,2.70
2022-08-14T01:58:00.851Z,2.50
2022-08-14T02:02:43.671Z,2.40
2022-08-14T02:07:55.709Z,2.80
2022-08-14T02:12:43.634Z,2.70
2022-08-14T02:17:42.459Z,2.90
2022-08-14T02:22:47.906Z,2.70
2022-08-14T02:28:24.523Z,2.80
2022-08-14T02:32:43.262Z,2.90
2022-08-14T02:37:47.851Z,2.70
2022-08-14T02:42:55.106Z,2.70
2022-08-14T02:47:47.508Z,2.60
2022-08-14T02:53:07.399Z,2.60
2022-08-14T02:57:42.956Z,2.90
2022-08-14T03:02:55.949Z,2.60
2022-08-14T03:07:42.829Z,2.80
2022-08-14T03:12:41.785Z,2.60
2022-08-14T03:17:57.275Z,2.60
2022-08-14T03:22:42.725Z,2.40
2022-08-14T03:27:48.650Z,2.40
2022-08-14T03:32:42.691Z,2.60
2022-08-14T03:39:10.431Z,2.30
2022-08-14T03:42:42.382Z,2.30
2022-08-14T03:47:46.611Z,3.00
2022-08-14T03:52:55.451Z,2.90
2022-08-14T03:57:42.653Z,2.70
2022-08-14T04:02:47.104Z,2.40
2022-08-14T04:07:49.808Z,2.50
2022-08-14T04:12:42.046Z,2.60
2022-08-14T04:17:41.938Z,2.60
2022-08-14T04:22:40.897Z,2.70
2022-08-14T04:27:48.598Z,2.40
2022-08-14T04:33:00.930Z,2.70
2022-08-14T04:37:41.697Z,2.70
2022-08-14T04:42:47.668Z,2.90
2022-08-14T04:47:46.541Z,2.40
2022-08-14T04:52:41.488Z,2.50
2022-08-14T04:57:40.444Z,2.40
2022-08-14T05:02:40.425Z,2.50
2022-08-14T05:07:53.939Z,3.10
2022-08-14T05:13:12.814Z,2.50
2022-08-14T05:17:44.040Z,2.90
2022-08-14T05:22:41.141Z,2.80
2022-08-14T05:27:40.074Z,2.80
2022-08-14T05:32:40.069Z,2.90
2022-08-14T05:37:39.936Z,2.40
2022-08-14T05:42:40.873Z,2.60
2022-08-14T05:47:40.808Z,2.20
2022-08-14T05:52:39.748Z,2.90
2022-08-14T05:57:39.692Z,2.90
2022-08-14T06:02:39.620Z,2.60
2022-08-14T06:07:39.569Z,3.00
2022-08-14T06:12:56.405Z,2.80
2022-08-14T06:17:47.150Z,2.70
2022-08-14T06:22:40.441Z,2.70
2022-08-14T06:27:39.325Z,2.80
2022-08-14T06:32:42.107Z,2.90
2022-08-14T06:37:39.206Z,2.90
2022-08-14T06:42:39.132Z,3.10
2022-08-14T06:47:39.088Z,2.90
2022-08-14T06:52:39.021Z,3.20
2022-08-14T06:57:39.951Z,3.40
2022-08-14T07:02:43.464Z,2.90
2022-08-14T07:07:39.816Z,3.10
2022-08-14T07:12:56.060Z,3.10
2022-08-14T07:17:39.691Z,3.30
2022-08-14T07:22:55.991Z,3.10
2022-08-14T07:27:45.615Z,3.20
2022-08-14T07:32:38.488Z,3.30
2022-08-14T07:37:38.455Z,3.00
2022-08-14T07:42:38.386Z,3.10
2022-08-14T07:47:38.475Z,3.10
2022-08-14T07:52:38.275Z,3.30
2022-08-14T07:57:38.203Z,3.00
2022-08-14T08:02:38.261Z,2.80
2022-08-14T08:07:39.211Z,2.90
2022-08-14T08:12:38.091Z,2.80
2022-08-14T08:17:38.665Z,2.90
2022-08-14T08:22:37.907Z,2.10
2022-08-14T08:27:37.838Z,2.40
2022-08-14T08:32:38.779Z,2.50
2022-08-14T08:37:40.346Z,2.30
2022-08-14T08:42:44.718Z,2.50
2022-08-14T08:47:38.593Z,2.10
2022-08-14T08:52:37.552Z,2.40
2022-08-14T08:57:37.738Z,1.90
2022-08-14T09:02:37.450Z,2.10
2022-08-14T09:07:37.346Z,2.30
2022-08-14T09:12:37.316Z,2.00
2022-08-14T09:17:37.234Z,1.90
2022-08-14T09:22:42.494Z,2.20
2022-08-14T09:27:38.103Z,2.10
2022-08-14T09:32:59.000Z,2.20
2022-08-14T09:37:38.017Z,2.00
2022-08-14T09:42:36.936Z,2.30
2022-08-14T09:47:37.872Z,2.10
2022-08-14T09:52:36.808Z,2.40
2022-08-14T09:57:36.842Z,2.00
2022-08-14T10:02:36.723Z,2.00
2022-08-14T10:07:36.687Z,2.30
2022-08-14T10:12:36.573Z,1.80
2022-08-14T10:17:38.421Z,2.00
2022-08-14T10:23:15.141Z,2.20
2022-08-14T10:27:37.398Z,1.90
2022-08-14T10:32:41.857Z,2.00
2022-08-14T10:37:37.297Z,2.30
2022-08-14T10:42:36.266Z,2.00
2022-08-14T10:47:41.475Z,1.90
2022-08-14T10:52:37.113Z,2.30
2022-08-14T10:57:37.050Z,2.10
2022-08-14T11:02:50.198Z,2.20
2022-08-14T11:07:36.928Z,2.20
2022-08-14T11:12:40.229Z,2.00
2022-08-14T11:17:35.811Z,1.70
2022-08-14T11:22:56.542Z,1.90
2022-08-14T11:27:36.698Z,1.80
2022-08-14T11:32:35.674Z,2.10
2022-08-14T11:37:40.783Z,2.00
2022-08-14T11:42:56.796Z,2.00
2022-08-14T11:47:44.159Z,1.80
2022-08-14T11:52:36.387Z,1.80
2022-08-14T11:57:35.343Z,2.10
2022-08-14T12:03:01.780Z,2.10
2022-08-14T12:07:36.210Z,2.00
2022-08-14T12:12:36.636Z,2.10
2022-08-14T12:17:47.243Z,2.20
2022-08-14T12:22:36.033Z,2.10
2022-08-14T12:27:34.980Z,2.10
2022-08-14T12:32:35.971Z,2.80
2022-08-14T12:37:34.879Z,2.20
2022-08-14T12:42:38.683Z,2.10
2022-08-14T12:47:35.745Z,2.00
2022-08-14T12:52:43.177Z,2.30
2022-08-14T12:57:35.679Z,1.80
2022-08-14T13:02:34.560Z,2.10
2022-08-14T13:07:34.518Z,2.20
2022-08-14T13:12:43.157Z,1.90
2022-08-14T13:17:38.018Z,2.50
2022-08-14T13:22:38.392Z,1.90
2022-08-14T13:27:41.282Z,2.00
2022-08-14T13:32:34.165Z,1.90
2022-08-14T13:37:34.125Z,2.20
2022-08-14T13:42:34.059Z,2.20
2022-08-14T13:47:34.008Z,2.00
2022-08-14T13:52:52.721Z,2.10
2022-08-14T13:57:34.872Z,2.00
2022-08-14T14:02:34.394Z,2.20
2022-08-14T14:07:33.770Z,2.20
2022-08-14T14:12:38.321Z,2.10
2022-08-14T14:17:34.648Z,2.30
2022-08-14T14:22:36.064Z,2.30
2022-08-14T14:27:40.854Z,2.30
2022-08-14T14:32:34.454Z,2.20
2022-08-14T14:37:33.391Z,1.90
2022-08-14T14:42:35.415Z,2.00
2022-08-14T14:47:33.306Z,2.10
2022-08-14T14:52:37.238Z,1.90
2022-08-14T14:57:35.085Z,1.90
2022-08-14T15:02:33.106Z,1.80
2022-08-14T15:07:33.212Z,1.50
2022-08-14T15:12:55.695Z,1.90
2022-08-14T15:17:35.302Z,2.20
2022-08-14T15:22:33.867Z,1.60
2022-08-14T15:27:32.789Z,1.80
2022-08-14T15:32:32.731Z,1.80
2022-08-14T15:37:33.889Z,1.80
2022-08-14T15:42:32.631Z,1.70
2022-08-14T15:47:32.556Z,1.80
2022-08-14T15:52:34.832Z,1.90
2022-08-14T15:57:33.433Z,1.70
2022-08-14T16:02:32.384Z,1.80
2022-08-14T16:07:32.318Z,2.00
2022-08-14T16:12:41.757Z,1.80
2022-08-14T16:17:33.173Z,1.70
2022-08-14T16:27:39.478Z,1.60
2022-08-14T16:32:36.201Z,1.60
2022-08-14T16:37:34.248Z,1.80
2022-08-14T16:40:24.798Z,1.80
2022-08-14T16:42:38.839Z,1.90
2022-08-14T16:47:35.220Z,1.60
2022-08-14T16:52:44.196Z,1.40
2022-08-14T16:57:32.737Z,1.60
2022-08-14T17:02:31.632Z,1.80
2022-08-14T17:07:31.585Z,1.20
2022-08-14T17:12:35.122Z,1.30
2022-08-14T17:17:31.446Z,1.30
2022-08-14T17:22:31.387Z,1.40
2022-08-14T17:27:31.320Z,1.40
2022-08-14T17:32:55.728Z,1.80
2022-08-14T17:37:34.220Z,1.30
2022-08-14T17:42:33.674Z,1.60
2022-08-14T17:47:31.104Z,1.30
2022-08-14T17:52:35.823Z,1.60
2022-08-14T17:57:35.313Z,1.30
2022-08-14T18:02:31.841Z,1.50
2022-08-14T18:07:59.358Z,1.30
2022-08-14T18:12:32.614Z,1.50
2022-08-14T18:17:30.724Z,1.40
2022-08-14T18:22:32.860Z,1.50
2022-08-14T18:27:31.573Z,1.40
2022-08-14T18:32:30.516Z,1.40
2022-08-14T18:37:30.444Z,1.40
2022-08-14T18:42:30.705Z,1.70
2022-08-14T18:47:56.580Z,1.40
2022-08-14T18:52:34.284Z,1.40
2022-08-14T18:57:40.240Z,1.60
2022-08-14T19:02:31.324Z,1.50
2022-08-14T19:07:34.171Z,1.70
2022-08-14T19:12:35.131Z,1.60
2022-08-14T19:17:30.947Z,1.80
2022-08-14T19:22:30.887Z,2.10
2022-08-14T19:27:47.660Z,1.80
2022-08-14T19:32:30.847Z,1.80
2022-08-14T19:37:29.691Z,2.00
2022-08-14T19:42:30.963Z,2.20
2022-08-14T19:47:38.667Z,2.00
2022-08-14T19:52:35.222Z,2.20
2022-08-14T19:57:30.435Z,2.20
2022-08-14T20:02:30.337Z,2.40
2022-08-14T20:08:09.069Z,2.00
2022-08-14T20:12:36.552Z,2.50
2022-08-14T20:17:30.201Z,2.30
2022-08-14T20:22:36.995Z,2.30
2022-08-14T20:27:33.988Z,2.10
2022-08-14T20:32:30.024Z,2.20
2022-08-14T20:37:28.946Z,2.50
2022-08-14T20:42:28.898Z,2.40
2022-08-14T20:47:28.817Z,2.20
2022-08-14T20:52:29.765Z,2.50
2022-08-14T20:57:28.697Z,2.40
2022-08-14T21:02:34.370Z,2.50
2022-08-14T21:07:36.091Z,2.40
2022-08-14T21:12:34.907Z,2.70
2022-08-14T21:17:29.443Z,2.60
2022-08-14T21:22:28.424Z,2.80
2022-08-14T21:27:29.329Z,2.80
2022-08-14T21:32:29.271Z,2.70
2022-08-14T21:37:29.839Z,2.50
2022-08-14T21:42:28.182Z,2.40
2022-08-14T21:47:28.062Z,2.60
2022-08-14T21:52:50.677Z,2.50
2022-08-14T21:57:56.615Z,2.70
2022-08-14T22:02:32.607Z,2.70
2022-08-14T22:07:29.369Z,2.70
2022-08-14T22:12:57.569Z,2.60
2022-08-14T22:17:32.356Z,2.60
2022-08-14T22:22:28.658Z,2.50
2022-08-14T22:27:27.578Z,2.70
2022-08-14T22:32:35.316Z,2.70
2022-08-14T22:37:28.488Z,2.80
2022-08-14T22:42:27.434Z,2.60
2022-08-14T22:47:40.536Z,2.60
2022-08-14T22:52:32.959Z,2.70
2022-08-14T22:57:37.595Z,2.50
2022-08-14T23:02:30.593Z,2.80
2022-08-14T23:08:44.122Z,2.70
2022-08-14T23:12:29.547Z,3.00
2022-08-14T23:17:26.933Z,2.70
2022-08-14T23:22:26.861Z,2.50
2022-08-14T23:27:28.421Z,2.50
2022-08-14T23:32:27.734Z,2.90
2022-08-14T23:37:27.077Z,2.60
2022-08-14T23:42:40.388Z,2.60
2022-08-14T23:47:27.937Z,2.80
2022-08-14T23:52:55.761Z,2.70
2022-08-14T23:57:30.741Z,2.60
